createdAt,value
2022-12-26T00:02:24.098Z,108.53
2022-12-26T00:04:53.595Z,94.13
2022-12-26T00:07:20.757Z,57.47
2022-12-26T00:09:47.339Z,48.85
2022-12-26T00:12:14.189Z,48.25
2022-12-26T00:14:40.735Z,47.90
2022-12-26T00:17:07.558Z,49.53
2022-12-26T00:21:59.340Z,47.83
2022-12-26T00:24:26.009Z,50.63
2022-12-26T00:26:52.570Z,48.38
2022-12-26T00:29:19.355Z,52.85
2022-12-26T00:31:46.882Z,48.35
2022-12-26T00:34:13.710Z,47.80
2022-12-26T00:36:40.381Z,45.10
2022-12-26T00:39:08.294Z,47.17
2022-12-26T00:41:34.865Z,43.90
2022-12-26T00:44:01.618Z,45.45
2022-12-26T00:46:28.480Z,47.10
2022-12-26T00:48:55.354Z,44.33
2022-12-26T00:51:22.197Z,47.25
2022-12-26T00:53:49.213Z,44.03
2022-12-26T00:56:15.954Z,43.25
2022-12-26T00:58:43.156Z,41.13
2022-12-26T01:01:19.336Z,41.97
2022-12-26T01:03:47.221Z,41.53
2022-12-26T01:06:14.807Z,42.55
2022-12-26T01:08:41.751Z,43.22
2022-12-26T01:11:11.894Z,40.25
2022-12-26T01:13:38.660Z,44.92
2022-12-26T01:16:06.460Z,42.15
2022-12-26T01:18:34.473Z,41.25
2022-12-26T01:21:04.526Z,40.42
2022-12-26T01:23:31.153Z,39.60
2022-12-26T01:26:17.936Z,39.95
2022-12-26T01:28:44.263Z,39.95
2022-12-26T01:31:11.013Z,48.22
2022-12-26T01:33:37.631Z,49.63
2022-12-26T01:36:04.373Z,43.17
2022-12-26T01:38:31.001Z,40.78
2022-12-26T01:41:16.728Z,42.17
2022-12-26T01:43:48.336Z,46.03
2022-12-26T01:46:16.471Z,41.72
2022-12-26T01:48:43.092Z,44.63
2022-12-26T01:51:09.970Z,50.50
2022-12-26T01:53:41.085Z,44.42
2022-12-26T01:56:12.025Z,39.78
2022-12-26T01:59:02.639Z,44.92
2022-12-26T02:01:33.333Z,43.92
2022-12-26T02:04:23.554Z,41.53
2022-12-26T02:06:50.567Z,39.22
2022-12-26T02:09:17.486Z,41.83
2022-12-26T02:11:50.041Z,39.80
2022-12-26T02:14:38.175Z,38.45
2022-12-26T02:17:05.228Z,38.85
2022-12-26T02:19:53.592Z,35.17
2022-12-26T02:22:20.070Z,38.20
2022-12-26T02:25:08.558Z,51.42
2022-12-26T02:27:35.041Z,42.53
2022-12-26T02:30:12.994Z,45.65
2022-12-26T02:32:54.482Z,37.03
2022-12-26T02:35:42.691Z,24.92
2022-12-26T02:38:26.380Z,35.13
2022-12-26T02:41:14.645Z,30.30
2022-12-26T02:44:27.669Z,30.05
2022-12-26T02:47:23.417Z,33.75
2022-12-26T02:52:39.733Z,34.35
2022-12-26T02:55:31.189Z,34.03
2022-12-26T02:58:32.021Z,35.53
2022-12-26T03:01:45.199Z,35.90
2022-12-26T03:04:35.212Z,32.63
2022-12-26T03:07:23.901Z,50.42
2022-12-26T03:10:11.935Z,48.50
2022-12-26T03:12:57.247Z,46.83
2022-12-26T03:15:29.063Z,38.55
2022-12-26T03:17:58.690Z,33.63
2022-12-26T03:20:31.210Z,33.70
2022-12-26T03:23:01.566Z,33.30
2022-12-26T03:26:09.074Z,32.30
2022-12-26T03:28:36.020Z,31.60
2022-12-26T03:31:06.844Z,30.58
2022-12-26T03:33:56.027Z,27.33
2022-12-26T03:36:42.283Z,30.88
2022-12-26T03:39:08.858Z,27.58
2022-12-26T03:42:17.974Z,27.83
2022-12-26T03:45:19.429Z,24.27
2022-12-26T03:48:20.105Z,25.80
2022-12-26T03:51:18.498Z,32.08
2022-12-26T03:54:08.958Z,26.95
2022-12-26T03:57:04.886Z,27.27
2022-12-26T04:00:16.809Z,31.80
2022-12-26T04:03:06.118Z,26.10
2022-12-26T04:05:55.843Z,25.42
2022-12-26T04:09:02.442Z,24.13
2022-12-26T04:11:48.047Z,25.02
2022-12-26T04:14:53.752Z,23.17
2022-12-26T04:17:48.036Z,34.10
2022-12-26T04:20:31.135Z,26.45
2022-12-26T04:23:31.603Z,27.88
2022-12-26T04:26:25.664Z,45.30
2022-12-26T04:29:11.147Z,35.60
2022-12-26T04:32:12.292Z,34.10
2022-12-26T04:35:09.587Z,42.47
2022-12-26T04:37:59.295Z,34.95
2022-12-26T04:40:49.663Z,38.15
2022-12-26T04:43:47.297Z,43.05
2022-12-26T04:46:20.616Z,39.25
2022-12-26T04:49:08.602Z,35.83
2022-12-26T04:51:35.557Z,35.42
2022-12-26T04:54:02.441Z,36.67
2022-12-26T04:56:29.060Z,39.50
2022-12-26T04:58:56.061Z,38.70
2022-12-26T05:01:41.491Z,48.67
2022-12-26T05:04:32.229Z,51.95
2022-12-26T05:07:19.582Z,46.05
2022-12-26T05:09:50.037Z,38.97
2022-12-26T05:12:16.729Z,39.03
2022-12-26T05:14:43.255Z,40.67
2022-12-26T05:17:29.856Z,33.08
2022-12-26T05:20:15.289Z,30.13
2022-12-26T05:23:03.038Z,32.38
2022-12-26T05:25:54.258Z,33.15
2022-12-26T05:28:42.290Z,27.85
2022-12-26T05:31:10.834Z,26.85
2022-12-26T05:33:55.935Z,21.67
2022-12-26T05:36:25.849Z,21.92
2022-12-26T05:38:52.426Z,20.05
2022-12-26T05:41:19.418Z,23.30
2022-12-26T05:43:46.174Z,29.02
2022-12-26T05:46:14.272Z,33.95
2022-12-26T05:48:41.125Z,29.77
2022-12-26T05:51:08.374Z,192.45
2022-12-26T05:53:34.962Z,150.50
2022-12-26T05:56:12.976Z,101.53
2022-12-26T05:58:40.746Z,77.22
2022-12-26T06:01:11.304Z,73.05
2022-12-26T06:03:39.292Z,47.15
2022-12-26T06:06:07.130Z,47.28
2022-12-26T06:08:34.253Z,49.55
2022-12-26T06:11:04.201Z,44.70
2022-12-26T06:13:30.907Z,40.03
2022-12-26T06:15:58.512Z,40.10
2022-12-26T06:18:25.576Z,47.75
2022-12-26T06:20:55.681Z,41.60
2022-12-26T06:23:22.236Z,58.70
2022-12-26T06:25:56.534Z,66.95
2022-12-26T06:28:24.195Z,67.10
2022-12-26T06:30:51.925Z,63.22
2022-12-26T06:33:19.226Z,88.95
2022-12-26T06:35:46.152Z,82.82
2022-12-26T06:38:13.907Z,83.53
2022-12-26T06:40:41.667Z,85.28
2022-12-26T06:43:08.800Z,68.05
2022-12-26T06:47:56.614Z,68.47
2022-12-26T06:50:23.295Z,72.60
2022-12-26T06:52:49.777Z,67.55
2022-12-26T06:55:16.522Z,69.22
2022-12-26T06:57:43.035Z,69.10
2022-12-26T07:00:10.640Z,73.38
2022-12-26T07:02:37.355Z,75.35
2022-12-26T07:05:04.307Z,77.88
2022-12-26T07:07:30.859Z,70.28
2022-12-26T07:09:57.445Z,71.72
2022-12-26T07:12:24.022Z,70.53
2022-12-26T07:14:50.580Z,76.93
2022-12-26T07:17:18.442Z,78.72
2022-12-26T07:19:45.003Z,85.82
2022-12-26T07:22:11.497Z,111.63
2022-12-26T07:24:38.053Z,84.60
2022-12-26T07:27:04.573Z,81.88
2022-12-26T07:29:31.207Z,84.38
2022-12-26T07:31:59.001Z,91.95
2022-12-26T07:34:31.193Z,103.03
2022-12-26T07:36:59.858Z,117.65
2022-12-26T07:39:26.341Z,98.25
2022-12-26T07:41:58.535Z,106.78
2022-12-26T07:44:26.741Z,102.18
2022-12-26T07:46:56.684Z,91.68
2022-12-26T07:49:23.605Z,108.80
2022-12-26T07:51:51.203Z,104.47
2022-12-26T07:54:18.776Z,101.25
2022-12-26T07:56:45.562Z,99.30
2022-12-26T07:59:16.673Z,101.90
2022-12-26T08:01:43.974Z,101.93
2022-12-26T08:04:11.742Z,137.68
2022-12-26T08:06:38.486Z,135.48
2022-12-26T08:09:05.655Z,133.30
2022-12-26T08:11:35.089Z,128.80
2022-12-26T08:14:02.137Z,137.85
2022-12-26T08:16:28.961Z,155.18
2022-12-26T08:18:55.507Z,139.43
2022-12-26T08:21:22.138Z,117.70
2022-12-26T08:23:48.662Z,131.40
2022-12-26T08:26:22.550Z,136.70
2022-12-26T08:28:51.110Z,128.73
2022-12-26T08:31:19.389Z,125.97
2022-12-26T08:33:46.036Z,123.57
2022-12-26T08:36:13.160Z,141.98
2022-12-26T08:38:40.757Z,141.88
2022-12-26T08:41:07.820Z,131.35
2022-12-26T08:46:22.099Z,144.60
2022-12-26T08:48:50.077Z,132.82
2022-12-26T08:51:22.682Z,131.60
2022-12-26T08:53:50.753Z,118.15
2022-12-26T08:56:23.114Z,110.20
2022-12-26T08:58:49.946Z,107.93
2022-12-26T09:01:22.285Z,108.13
2022-12-26T09:03:53.540Z,108.13
2022-12-26T09:06:21.174Z,111.43
2022-12-26T09:08:47.897Z,109.82
2022-12-26T09:11:17.997Z,106.32
2022-12-26T09:13:45.681Z,105.47
2022-12-26T09:16:14.185Z,101.32
2022-12-26T09:18:42.868Z,106.90
2022-12-26T09:21:11.456Z,113.63
2022-12-26T09:23:39.254Z,105.25
2022-12-26T09:26:12.322Z,117.72
2022-12-26T09:28:39.411Z,130.05
2022-12-26T09:31:09.825Z,128.85
2022-12-26T09:33:37.747Z,113.55
2022-12-26T09:36:14.567Z,137.25
2022-12-26T09:38:45.821Z,147.18
2022-12-26T09:41:30.825Z,141.60
2022-12-26T09:44:28.305Z,146.30
2022-12-26T09:47:06.820Z,151.13
2022-12-26T09:49:36.657Z,144.23
2022-12-26T09:52:12.130Z,144.15
2022-12-26T09:54:49.312Z,146.23
2022-12-26T09:57:20.113Z,142.52
2022-12-26T09:59:55.280Z,136.35
2022-12-26T10:02:25.272Z,141.15
2022-12-26T10:04:53.518Z,146.13
2022-12-26T10:07:44.468Z,144.43
2022-12-26T10:10:32.677Z,136.07
2022-12-26T10:13:11.469Z,138.40
2022-12-26T10:15:50.523Z,136.55
2022-12-26T10:18:47.297Z,136.88
2022-12-26T10:21:14.842Z,125.25
2022-12-26T10:23:45.744Z,128.40
2022-12-26T10:26:22.303Z,130.57
2022-12-26T10:28:59.306Z,159.35
2022-12-26T10:31:30.070Z,198.32
2022-12-26T10:34:05.787Z,209.63
2022-12-26T10:36:37.562Z,224.48
2022-12-26T10:39:10.912Z,152.50
2022-12-26T10:41:43.756Z,158.63
2022-12-26T10:44:12.944Z,159.32
2022-12-26T10:47:11.924Z,143.82
2022-12-26T10:49:38.508Z,119.78
2022-12-26T10:52:05.483Z,122.20
2022-12-26T10:54:32.325Z,120.72
2022-12-26T10:57:01.268Z,118.28
2022-12-26T10:59:43.895Z,116.22
2022-12-26T11:02:24.790Z,118.45
2022-12-26T11:05:21.891Z,130.65
2022-12-26T11:08:15.114Z,126.90
2022-12-26T11:11:06.387Z,116.75
2022-12-26T11:13:41.979Z,115.05
2022-12-26T11:16:09.936Z,120.93
2022-12-26T11:18:48.129Z,102.88
2022-12-26T11:21:17.563Z,104.93
2022-12-26T11:23:49.345Z,108.00
2022-12-26T11:26:27.953Z,107.78
2022-12-26T11:29:14.281Z,108.53
2022-12-26T11:31:44.318Z,100.28
2022-12-26T11:34:17.603Z,105.20
2022-12-26T11:36:51.369Z,99.88
2022-12-26T11:39:30.502Z,112.15
2022-12-26T11:41:57.723Z,119.18
2022-12-26T11:44:29.082Z,104.28
2022-12-26T11:47:01.625Z,99.20
2022-12-26T11:49:31.271Z,216.82
2022-12-26T11:52:00.057Z,214.63
2022-12-26T11:54:36.783Z,158.13
2022-12-26T11:57:11.820Z,121.00
2022-12-26T11:59:38.917Z,100.32
2022-12-26T12:02:26.441Z,95.25
2022-12-26T12:04:57.189Z,80.80
2022-12-26T12:07:56.835Z,93.53
2022-12-26T12:10:38.376Z,81.53
2022-12-26T12:13:42.661Z,87.43
2022-12-26T12:16:33.512Z,86.18
2022-12-26T12:19:21.715Z,76.13
2022-12-26T12:22:10.096Z,78.10
2022-12-26T12:25:04.604Z,101.32
2022-12-26T12:27:36.958Z,86.55
2022-12-26T12:30:19.990Z,84.90
2022-12-26T12:33:24.636Z,81.50
2022-12-26T12:35:56.951Z,106.63
2022-12-26T12:38:31.692Z,121.15
2022-12-26T12:41:11.981Z,133.25
2022-12-26T12:44:08.910Z,129.25
2022-12-26T12:46:41.286Z,106.90
2022-12-26T12:49:23.947Z,91.72
2022-12-26T12:52:16.774Z,76.78
2022-12-26T12:55:31.490Z,102.47
2022-12-26T12:58:17.107Z,80.45
2022-12-26T13:00:59.111Z,65.47
2022-12-26T13:03:35.257Z,62.05
2022-12-26T13:06:29.466Z,62.03
2022-12-26T13:11:36.036Z,74.32
2022-12-26T13:14:10.708Z,81.35
2022-12-26T13:16:43.611Z,64.15
2022-12-26T13:19:40.579Z,77.57
2022-12-26T13:22:14.869Z,47.78
2022-12-26T13:24:46.240Z,28.85
2022-12-26T13:27:21.614Z,21.67
2022-12-26T13:29:49.535Z,23.77
2022-12-26T13:32:31.380Z,294.60
2022-12-26T13:35:00.570Z,49.25
2022-12-26T13:37:39.280Z,34.78
2022-12-26T13:40:20.246Z,32.80
2022-12-26T13:43:34.957Z,34.63
2022-12-26T13:46:01.852Z,38.22
2022-12-26T13:48:30.333Z,30.73
2022-12-26T13:51:00.355Z,28.15
2022-12-26T13:53:38.986Z,30.20
2022-12-26T13:56:39.649Z,30.70
2022-12-26T13:59:11.708Z,24.23
2022-12-26T14:02:21.187Z,23.10
2022-12-26T14:05:11.982Z,23.90
2022-12-26T14:07:45.299Z,23.92
2022-12-26T14:10:32.856Z,22.67
2022-12-26T14:13:22.846Z,24.08
2022-12-26T14:15:58.021Z,27.25
2022-12-26T14:18:48.934Z,22.60
2022-12-26T14:21:43.741Z,28.77
2022-12-26T14:24:22.434Z,23.55
2022-12-26T14:27:21.255Z,31.83
2022-12-26T14:30:06.962Z,31.77
2022-12-26T14:33:18.105Z,27.75
2022-12-26T14:35:44.645Z,33.20
2022-12-26T14:38:20.198Z,35.80
2022-12-26T14:41:04.677Z,16.50
2022-12-26T14:43:37.645Z,13.68
2022-12-26T14:46:27.107Z,16.10
2022-12-26T14:48:57.375Z,46.17
2022-12-26T14:51:30.777Z,39.20
2022-12-26T14:54:33.786Z,52.55
2022-12-26T14:57:01.030Z,43.58
2022-12-26T14:59:27.908Z,51.92
2022-12-26T15:04:20.094Z,47.15
2022-12-26T15:07:20.918Z,46.03
2022-12-26T15:10:02.987Z,57.65
2022-12-26T15:12:58.355Z,214.88
2022-12-26T15:15:41.916Z,262.02
2022-12-26T15:18:27.025Z,146.60
2022-12-26T15:20:59.365Z,84.20
2022-12-26T15:24:01.524Z,38.65
2022-12-26T15:26:40.605Z,41.33
2022-12-26T15:29:38.278Z,35.60
2022-12-26T15:32:07.521Z,29.88
2022-12-26T15:35:10.156Z,28.05
2022-12-26T15:40:35.361Z,29.00
2022-12-26T15:43:21.971Z,26.65
2022-12-26T15:46:14.278Z,25.35
2022-12-26T15:49:14.979Z,25.30
2022-12-26T15:51:57.491Z,25.38
2022-12-26T15:54:36.121Z,30.50
2022-12-26T15:57:20.867Z,53.70
2022-12-26T15:59:47.441Z,43.17
2022-12-26T16:02:32.966Z,46.80
2022-12-26T16:05:19.813Z,83.95
2022-12-26T16:08:08.822Z,34.58
2022-12-26T16:10:36.482Z,37.88
2022-12-26T16:13:11.744Z,50.92
2022-12-26T16:15:52.042Z,51.10
2022-12-26T16:18:20.143Z,49.40
2022-12-26T16:21:06.922Z,39.60
2022-12-26T16:23:40.164Z,247.82
2022-12-26T16:26:07.638Z,66.53
2022-12-26T16:28:38.224Z,112.93
2022-12-26T16:31:05.988Z,68.75
2022-12-26T16:33:44.068Z,81.30
2022-12-26T16:36:23.736Z,111.95
2022-12-26T16:38:52.433Z,119.90
2022-12-26T16:41:26.311Z,127.63
2022-12-26T16:43:54.750Z,100.25
2022-12-26T16:46:28.810Z,108.38
2022-12-26T16:48:58.756Z,54.05
2022-12-26T16:51:31.097Z,42.72
2022-12-26T16:54:16.578Z,45.15
2022-12-26T16:56:47.324Z,59.15
2022-12-26T16:59:21.172Z,129.98
2022-12-26T17:01:57.099Z,78.97
2022-12-26T17:04:26.383Z,43.85
2022-12-26T17:07:08.943Z,35.05
2022-12-26T17:09:44.185Z,32.00
2022-12-26T17:12:27.770Z,38.53
2022-12-26T17:14:56.971Z,39.67
2022-12-26T17:17:24.833Z,46.33
2022-12-26T17:19:56.683Z,48.80
2022-12-26T17:22:50.651Z,50.72
2022-12-26T17:25:17.188Z,62.85
2022-12-26T17:27:45.177Z,26.45
2022-12-26T17:30:32.232Z,24.13
2022-12-26T17:33:05.106Z,24.52
2022-12-26T17:36:13.542Z,25.27
2022-12-26T17:38:27.144Z,28.63
2022-12-26T17:40:56.528Z,20.27
2022-12-26T17:43:29.289Z,21.48
2022-12-26T17:45:56.472Z,19.13
2022-12-26T17:48:23.623Z,20.25
2022-12-26T17:50:55.965Z,23.75
2022-12-26T17:53:22.539Z,18.00
2022-12-26T17:55:50.906Z,24.05
2022-12-26T17:58:17.742Z,26.75
2022-12-26T18:00:45.207Z,40.25
2022-12-26T18:03:12.393Z,39.10
2022-12-26T18:05:39.745Z,49.50
2022-12-26T18:08:06.964Z,41.45
2022-12-26T18:10:36.562Z,41.97
2022-12-26T18:13:03.949Z,51.42
2022-12-26T18:15:34.080Z,49.47
2022-12-26T18:18:00.809Z,41.78
2022-12-26T18:20:29.560Z,30.70
2022-12-26T18:22:59.742Z,23.33
2022-12-26T18:25:30.400Z,24.67
2022-12-26T18:27:57.059Z,23.88
2022-12-26T18:30:25.636Z,23.02
2022-12-26T18:32:53.497Z,21.58
2022-12-26T18:35:22.886Z,20.35
2022-12-26T18:37:52.093Z,20.08
2022-12-26T18:40:31.247Z,24.52
2022-12-26T18:42:58.007Z,29.60
2022-12-26T18:45:24.960Z,19.98
2022-12-26T18:47:51.677Z,19.67
2022-12-26T18:50:18.666Z,22.35
2022-12-26T18:52:49.985Z,27.25
2022-12-26T18:55:19.982Z,25.75
2022-12-26T18:57:46.823Z,26.67
2022-12-26T19:00:15.178Z,22.95
2022-12-26T19:02:42.221Z,39.10
2022-12-26T19:05:36.332Z,20.05
2022-12-26T19:08:03.293Z,22.40
2022-12-26T19:10:32.605Z,25.48
2022-12-26T19:13:05.783Z,26.05
2022-12-26T19:15:35.954Z,130.70
2022-12-26T19:18:04.039Z,34.58
2022-12-26T19:20:30.855Z,29.55
2022-12-26T19:22:59.783Z,30.63
2022-12-26T19:25:30.120Z,32.50
2022-12-26T19:27:57.826Z,30.23
2022-12-26T19:30:24.707Z,31.42
2022-12-26T19:32:53.712Z,31.02
2022-12-26T19:35:25.454Z,23.45
2022-12-26T19:38:05.122Z,39.75
2022-12-26T19:40:37.659Z,76.82
2022-12-26T19:43:07.294Z,17.83
2022-12-26T19:48:03.695Z,15.60
2022-12-26T19:50:40.755Z,13.43
2022-12-26T19:53:07.409Z,13.07
2022-12-26T19:55:38.733Z,13.50
2022-12-26T19:58:05.762Z,14.07
2022-12-26T20:00:35.605Z,12.40
2022-12-26T20:03:08.643Z,12.25
2022-12-26T20:05:40.062Z,18.40
2022-12-26T20:08:10.048Z,14.20
2022-12-26T20:10:44.591Z,9.77
2022-12-26T20:13:14.767Z,11.23
2022-12-26T20:15:51.263Z,12.65
2022-12-26T20:18:29.614Z,10.82
2022-12-26T20:20:56.540Z,10.52
2022-12-26T20:23:25.902Z,10.18
2022-12-26T20:26:29.031Z,11.27
2022-12-26T20:29:06.894Z,11.30
2022-12-26T20:31:36.387Z,21.77
2022-12-26T20:34:09.439Z,14.90
2022-12-26T20:36:52.546Z,17.40
2022-12-26T20:39:20.374Z,12.02
2022-12-26T20:41:49.601Z,11.02
2022-12-26T20:44:17.946Z,10.82
2022-12-26T20:46:48.444Z,14.65
2022-12-26T20:49:23.963Z,13.77
2022-12-26T20:51:55.261Z,13.77
2022-12-26T20:54:42.812Z,16.42
2022-12-26T20:57:09.643Z,13.27
2022-12-26T20:59:39.334Z,13.30
2022-12-26T21:02:06.879Z,15.25
2022-12-26T21:04:36.647Z,15.48
2022-12-26T21:07:03.418Z,17.17
2022-12-26T21:09:30.245Z,16.48
2022-12-26T21:11:56.851Z,15.80
2022-12-26T21:14:23.989Z,17.05
2022-12-26T21:16:54.606Z,21.98
2022-12-26T21:19:23.194Z,20.67
2022-12-26T21:21:54.450Z,20.10
2022-12-26T21:24:29.705Z,19.43
2022-12-26T21:26:56.752Z,19.30
2022-12-26T21:29:29.004Z,17.83
2022-12-26T21:31:56.486Z,17.25
2022-12-26T21:37:11.006Z,17.25
2022-12-26T21:39:39.260Z,16.92
2022-12-26T21:42:07.857Z,16.90
2022-12-26T21:44:35.924Z,16.10
2022-12-26T21:47:04.605Z,18.55
2022-12-26T21:49:31.678Z,16.83
2022-12-26T21:51:58.312Z,19.67
2022-12-26T21:54:48.714Z,17.17
2022-12-26T21:57:16.670Z,16.48
2022-12-26T21:59:56.681Z,19.20
2022-12-26T22:02:53.597Z,19.95
2022-12-26T22:05:23.906Z,18.80
2022-12-26T22:07:56.071Z,22.02
2022-12-26T22:13:09.286Z,19.20
2022-12-26T22:15:59.732Z,19.35
2022-12-26T22:18:26.413Z,17.05
2022-12-26T22:20:53.102Z,16.63
2022-12-26T22:23:19.763Z,18.55
2022-12-26T22:25:55.781Z,16.50
2022-12-26T22:28:23.752Z,18.40
2022-12-26T22:30:51.270Z,18.40
2022-12-26T22:33:19.265Z,17.05
2022-12-26T22:35:46.158Z,17.83
2022-12-26T22:38:13.049Z,19.38
2022-12-26T22:40:40.448Z,16.45
2022-12-26T22:43:06.980Z,14.15
2022-12-26T22:45:33.775Z,16.05
2022-12-26T22:48:00.424Z,17.33
2022-12-26T22:50:27.000Z,13.88
2022-12-26T22:52:53.783Z,14.52
2022-12-26T22:55:23.240Z,15.82
2022-12-26T22:57:52.792Z,13.65
2022-12-26T23:00:22.425Z,15.90
2022-12-26T23:02:49.439Z,14.35
2022-12-26T23:05:16.341Z,13.38
2022-12-26T23:07:44.355Z,12.98
2022-12-26T23:10:18.204Z,13.73
2022-12-26T23:12:45.253Z,12.65
2022-12-26T23:15:18.388Z,15.07
2022-12-26T23:18:10.245Z,14.98
2022-12-26T23:21:10.793Z,13.15
2022-12-26T23:23:40.152Z,12.27
2022-12-26T23:26:06.675Z,12.60
2022-12-26T23:28:52.018Z,12.15
2022-12-26T23:31:18.610Z,11.95
2022-12-26T23:33:45.165Z,11.73
2022-12-26T23:36:12.069Z,11.50
2022-12-26T23:38:38.674Z,18.23
2022-12-26T23:41:05.325Z,21.88
2022-12-26T23:43:33.564Z,27.23
2022-12-26T23:46:00.679Z,23.63
2022-12-26T23:48:27.482Z,20.60
2022-12-26T23:51:07.819Z,20.02
2022-12-26T23:53:35.155Z,19.38
2022-12-26T23:56:01.957Z,19.52
2022-12-26T23:58:28.964Z,20.70
